createdAt,value
2022-08-11T00:01:08.129Z,2.50
2022-08-11T00:03:43.268Z,2.50
2022-08-11T00:06:15.434Z,2.45
2022-08-11T00:08:44.197Z,2.78
2022-08-11T00:11:12.629Z,2.15
2022-08-11T00:13:45.361Z,2.30
2022-08-11T00:16:16.370Z,2.40
2022-08-11T00:18:45.815Z,2.42
2022-08-11T00:21:16.462Z,2.53
2022-08-11T00:23:48.357Z,2.55
2022-08-11T00:26:15.720Z,2.47
2022-08-11T00:28:43.216Z,2.53
2022-08-11T00:31:24.602Z,2.08
2022-08-11T00:33:52.258Z,2.70
2022-08-11T00:36:25.579Z,2.15
2022-08-11T00:38:56.054Z,2.65
2022-08-11T00:41:39.295Z,2.53
2022-08-11T00:44:27.608Z,2.33
2022-08-11T00:47:35.264Z,2.30
2022-08-11T00:50:04.534Z,2.00
2022-08-11T00:52:37.810Z,2.40
2022-08-11T00:55:23.077Z,2.17
2022-08-11T00:58:10.996Z,2.53
2022-08-11T01:01:15.991Z,2.00
2022-08-11T01:04:19.770Z,2.67
2022-08-11T01:08:01.610Z,2.23
2022-08-11T01:10:32.788Z,2.83
2022-08-11T01:13:17.873Z,2.38
2022-08-11T01:16:07.382Z,2.40
2022-08-11T01:18:52.707Z,2.35
2022-08-11T01:21:41.035Z,2.20
2022-08-11T01:24:42.731Z,2.50
2022-08-11T01:27:21.321Z,2.50
2022-08-11T01:30:09.088Z,2.70
2022-08-11T01:33:13.059Z,2.33
2022-08-11T01:35:41.722Z,2.28
2022-08-11T01:38:37.792Z,2.83
2022-08-11T01:41:55.085Z,2.70
2022-08-11T01:44:39.414Z,2.55
2022-08-11T01:47:52.994Z,2.80
2022-08-11T01:50:46.421Z,2.67
2022-08-11T01:53:34.712Z,2.90
2022-08-11T01:56:14.233Z,3.05
2022-08-11T01:59:06.043Z,2.80
2022-08-11T02:01:32.532Z,2.60
2022-08-11T02:04:19.801Z,2.88
2022-08-11T02:07:04.599Z,2.75
2022-08-11T02:09:57.811Z,3.05
2022-08-11T02:12:52.429Z,2.80
2022-08-11T02:15:39.531Z,3.28
2022-08-11T02:18:22.847Z,2.80
2022-08-11T02:21:21.165Z,2.78
2022-08-11T02:24:04.469Z,3.20
2022-08-11T02:26:41.863Z,2.95
2022-08-11T02:29:42.471Z,2.88
2022-08-11T02:32:36.947Z,3.00
2022-08-11T02:35:42.877Z,3.10
2022-08-11T02:38:24.815Z,3.00
2022-08-11T02:41:25.643Z,2.88
2022-08-11T02:44:37.155Z,3.10
2022-08-11T02:47:06.541Z,3.00
2022-08-11T02:50:06.125Z,2.80
2022-08-11T02:53:07.281Z,3.15
2022-08-11T02:55:58.348Z,2.90
2022-08-11T02:58:37.230Z,2.85
2022-08-11T03:01:19.788Z,3.05
2022-08-11T03:03:55.314Z,2.90
2022-08-11T03:06:45.029Z,2.92
2022-08-11T03:09:24.860Z,2.78
2022-08-11T03:12:29.836Z,2.90
2022-08-11T03:15:38.833Z,2.85
2022-08-11T03:18:26.897Z,3.10
2022-08-11T03:21:15.666Z,2.42
2022-08-11T03:24:01.533Z,2.88
2022-08-11T03:26:55.459Z,3.10
2022-08-11T03:29:56.123Z,3.20
2022-08-11T03:32:30.690Z,3.13
2022-08-11T03:35:04.057Z,2.90
2022-08-11T03:38:08.379Z,3.10
2022-08-11T03:42:01.481Z,3.00
2022-08-11T03:44:21.207Z,3.15
2022-08-11T03:47:03.434Z,2.90
2022-08-11T03:49:39.035Z,3.00
2022-08-11T03:52:16.624Z,3.00
2022-08-11T03:55:17.087Z,2.92
2022-08-11T03:58:06.709Z,2.90
2022-08-11T04:01:03.954Z,3.00
2022-08-11T04:03:56.512Z,2.97
2022-08-11T04:06:55.274Z,3.05
2022-08-11T04:09:46.537Z,2.80
2022-08-11T04:12:35.809Z,2.85
2022-08-11T04:15:31.141Z,2.97
2022-08-11T04:21:03.038Z,2.88
2022-08-11T04:24:34.813Z,2.80
2022-08-11T04:26:49.947Z,3.13
2022-08-11T04:30:03.777Z,3.10
2022-08-11T04:32:53.692Z,3.17
2022-08-11T04:35:35.459Z,3.00
2022-08-11T04:38:39.581Z,3.30
2022-08-11T04:41:33.053Z,3.28
2022-08-11T04:44:12.120Z,4.17
2022-08-11T04:47:09.432Z,3.78
2022-08-11T04:50:17.086Z,3.88
2022-08-11T04:53:28.974Z,3.22
2022-08-11T04:56:13.889Z,3.45
2022-08-11T04:59:40.920Z,3.55
2022-08-11T05:02:35.568Z,2.70
2022-08-11T05:05:35.196Z,2.97
2022-08-11T05:08:32.926Z,2.67
2022-08-11T05:11:22.059Z,2.90
2022-08-11T05:14:10.805Z,2.60
2022-08-11T05:17:10.209Z,3.35
2022-08-11T05:19:56.482Z,2.83
2022-08-11T05:22:47.797Z,2.88
2022-08-11T05:26:44.263Z,2.70
2022-08-11T05:28:50.688Z,2.70
2022-08-11T05:31:38.660Z,2.60
2022-08-11T05:34:43.907Z,2.58
2022-08-11T05:37:27.587Z,2.60
2022-08-11T05:40:31.251Z,2.75
2022-08-11T05:43:19.851Z,2.85
2022-08-11T05:46:20.774Z,2.75
2022-08-11T05:49:07.114Z,2.88
2022-08-11T05:52:04.914Z,2.58
2022-08-11T05:54:54.482Z,2.85
2022-08-11T05:57:48.933Z,2.72
2022-08-11T06:00:18.377Z,2.72
2022-08-11T06:02:55.182Z,2.67
2022-08-11T06:05:22.739Z,2.85
2022-08-11T06:07:55.474Z,2.65
2022-08-11T06:10:38.140Z,2.80
2022-08-11T06:13:06.856Z,3.00
2022-08-11T06:15:43.444Z,2.60
2022-08-11T06:18:12.268Z,2.55
2022-08-11T06:20:56.424Z,2.88
2022-08-11T06:23:25.206Z,2.78
2022-08-11T06:25:53.124Z,2.90
2022-08-11T06:28:32.636Z,2.58
2022-08-11T06:31:00.053Z,2.47
2022-08-11T06:33:51.549Z,2.47
2022-08-11T06:36:42.684Z,2.55
2022-08-11T06:39:27.728Z,2.95
2022-08-11T06:42:05.396Z,2.85
2022-08-11T06:45:08.338Z,2.75
2022-08-11T06:47:35.816Z,2.50
2022-08-11T06:50:33.502Z,2.88
2022-08-11T06:53:05.347Z,2.75
2022-08-11T06:55:58.943Z,2.50
2022-08-11T06:58:50.572Z,2.45
2022-08-11T07:01:28.282Z,2.72
2022-08-11T07:04:04.513Z,2.63
2022-08-11T07:07:08.592Z,2.60
2022-08-11T07:10:19.496Z,2.70
2022-08-11T07:13:09.455Z,2.83
2022-08-11T07:16:12.104Z,2.40
2022-08-11T07:22:01.146Z,2.45
2022-08-11T07:24:59.415Z,2.80
2022-08-11T07:27:54.569Z,2.65
2022-08-11T07:30:24.614Z,2.42
2022-08-11T07:32:54.798Z,2.40
2022-08-11T07:35:30.307Z,2.55
2022-08-11T07:38:08.769Z,2.30
2022-08-11T07:40:37.352Z,2.80
2022-08-11T07:43:06.916Z,2.15
2022-08-11T07:45:53.051Z,2.10
2022-08-11T07:48:39.430Z,2.10
2022-08-11T07:51:24.713Z,2.30
2022-08-11T07:53:58.792Z,2.30
2022-08-11T07:56:54.233Z,1.90
2022-08-11T08:00:00.190Z,2.30
2022-08-11T08:02:49.993Z,2.25
2022-08-11T08:05:36.318Z,2.20
2022-08-11T08:08:22.177Z,2.00
2022-08-11T08:11:11.047Z,2.10
2022-08-11T08:13:56.882Z,1.88
2022-08-11T08:16:42.754Z,2.08
2022-08-11T08:19:14.916Z,1.73
2022-08-11T08:21:45.686Z,1.92
2022-08-11T08:24:17.358Z,1.85
2022-08-11T08:26:59.998Z,1.90
2022-08-11T08:29:52.152Z,1.58
2022-08-11T08:32:20.325Z,1.48
2022-08-11T08:34:50.368Z,1.77
2022-08-11T08:37:45.792Z,1.75
2022-08-11T08:40:13.124Z,1.58
2022-08-11T08:42:51.521Z,1.60
2022-08-11T08:45:19.067Z,1.58
2022-08-11T08:47:58.861Z,1.50
2022-08-11T08:50:47.570Z,1.60
2022-08-11T08:53:15.662Z,1.60
2022-08-11T08:55:45.536Z,1.70
2022-08-11T08:58:14.027Z,1.80
2022-08-11T09:00:45.280Z,1.63
2022-08-11T09:03:38.560Z,1.52
2022-08-11T09:06:01.979Z,1.50
2022-08-11T09:08:35.256Z,1.60
2022-08-11T09:14:05.717Z,1.85
2022-08-11T09:16:36.041Z,1.70
2022-08-11T09:19:03.196Z,1.42
2022-08-11T09:21:45.447Z,1.50
2022-08-11T09:24:35.306Z,1.70
2022-08-11T09:27:06.769Z,2.00
2022-08-11T09:29:36.732Z,2.60
2022-08-11T09:32:03.605Z,1.50
2022-08-11T09:34:30.609Z,1.90
2022-08-11T09:37:28.470Z,1.70
2022-08-11T09:40:27.240Z,1.70
2022-08-11T09:43:13.547Z,1.52
2022-08-11T09:45:42.685Z,1.45
2022-08-11T09:48:11.265Z,1.73
2022-08-11T09:50:40.191Z,1.90
2022-08-11T09:53:36.182Z,1.77
2022-08-11T09:55:57.465Z,1.67
2022-08-11T09:58:41.828Z,1.73
2022-08-11T10:01:26.964Z,1.83
2022-08-11T10:04:01.384Z,1.80
2022-08-11T10:06:48.544Z,1.80
2022-08-11T10:09:24.308Z,1.70
2022-08-11T10:11:57.916Z,2.85
2022-08-11T10:14:45.126Z,22.67
2022-08-11T10:17:14.594Z,42.58
2022-08-11T10:19:43.460Z,5.72
2022-08-11T10:22:29.063Z,3.50
2022-08-11T10:25:37.567Z,1.83
2022-08-11T10:28:32.844Z,1.50
2022-08-11T10:31:15.399Z,2.00
2022-08-11T10:34:03.847Z,1.65
2022-08-11T10:36:46.672Z,1.60
2022-08-11T10:39:18.104Z,1.40
2022-08-11T10:42:12.271Z,1.45
2022-08-11T10:44:47.343Z,1.45
2022-08-11T10:47:34.501Z,2.03
2022-08-11T10:50:27.833Z,1.83
2022-08-11T10:53:15.303Z,1.40
2022-08-11T10:58:50.121Z,1.40
2022-08-11T11:01:34.916Z,1.42
2022-08-11T11:04:15.483Z,1.05
2022-08-11T11:07:00.187Z,1.42
2022-08-11T11:09:32.679Z,1.30
2022-08-11T11:12:22.862Z,1.50
2022-08-11T11:15:17.377Z,1.33
2022-08-11T11:17:56.654Z,1.35
2022-08-11T11:20:36.173Z,1.10
2022-08-11T11:23:33.977Z,1.15
2022-08-11T11:26:27.327Z,1.50
2022-08-11T11:29:16.245Z,1.25
2022-08-11T11:32:04.128Z,1.48
2022-08-11T11:34:33.628Z,1.60
2022-08-11T11:37:01.960Z,1.20
2022-08-11T11:39:33.588Z,1.33
2022-08-11T11:42:05.049Z,1.38
2022-08-11T11:44:32.992Z,1.65
2022-08-11T11:47:01.359Z,1.60
2022-08-11T11:49:29.906Z,1.50
2022-08-11T11:51:58.443Z,1.30
2022-08-11T11:54:31.259Z,1.40
2022-08-11T11:57:19.381Z,1.42
2022-08-11T12:00:05.971Z,1.33
2022-08-11T12:02:33.026Z,1.27
2022-08-11T12:05:02.011Z,1.25
2022-08-11T12:07:56.978Z,1.23
2022-08-11T12:10:37.841Z,1.38
2022-08-11T12:13:24.619Z,1.25
2022-08-11T12:16:32.906Z,1.40
2022-08-11T12:18:41.671Z,1.27
2022-08-11T12:21:11.514Z,1.50
2022-08-11T12:24:02.278Z,1.25
2022-08-11T12:27:14.998Z,1.30
2022-08-11T12:29:39.905Z,1.48
2022-08-11T12:32:08.952Z,1.33
2022-08-11T12:34:36.554Z,1.25
2022-08-11T12:37:06.810Z,1.15
2022-08-11T12:40:16.219Z,1.63
2022-08-11T12:43:20.726Z,1.33
2022-08-11T12:45:53.564Z,1.60
2022-08-11T12:48:58.936Z,1.45
2022-08-11T12:52:11.441Z,1.55
2022-08-11T12:54:45.940Z,1.35
2022-08-11T12:57:37.950Z,1.50
2022-08-11T13:00:27.601Z,1.60
2022-08-11T13:03:14.523Z,1.50
2022-08-11T13:05:44.947Z,1.42
2022-08-11T13:08:15.495Z,1.20
2022-08-11T13:11:02.717Z,1.50
2022-08-11T13:13:55.177Z,1.70
2022-08-11T13:16:18.573Z,1.63
2022-08-11T13:18:45.279Z,1.30
2022-08-11T13:21:20.218Z,1.25
2022-08-11T13:23:59.829Z,2.17
2022-08-11T13:26:47.159Z,1.30
2022-08-11T13:29:27.791Z,1.38
2022-08-11T13:31:56.738Z,1.40
2022-08-11T13:34:28.380Z,1.45
2022-08-11T13:37:00.177Z,1.20
2022-08-11T13:39:34.319Z,1.48
2022-08-11T13:42:04.656Z,1.35
2022-08-11T13:44:35.874Z,1.35
2022-08-11T13:47:05.869Z,1.40
2022-08-11T13:49:40.322Z,1.50
2022-08-11T13:52:12.908Z,1.40
2022-08-11T13:54:43.654Z,1.20
2022-08-11T13:58:06.315Z,1.27
2022-08-11T14:00:23.651Z,1.55
2022-08-11T14:02:56.900Z,1.52
2022-08-11T14:05:28.479Z,1.30
2022-08-11T14:08:37.685Z,1.20
2022-08-11T14:12:22.293Z,1.40
2022-08-11T14:14:23.514Z,1.48
2022-08-11T14:16:52.166Z,1.40
2022-08-11T14:19:22.674Z,1.30
2022-08-11T14:22:12.627Z,1.42
2022-08-11T14:24:45.240Z,1.30
2022-08-11T14:28:34.036Z,1.37
2022-08-11T14:30:02.917Z,1.30
2022-08-11T14:32:29.943Z,1.17
2022-08-11T14:34:56.935Z,1.20
2022-08-11T14:37:27.161Z,1.15
2022-08-11T14:39:58.258Z,1.58
2022-08-11T14:42:45.711Z,1.02
2022-08-11T14:45:55.539Z,1.40
2022-08-11T14:48:22.620Z,1.02
2022-08-11T14:50:49.387Z,1.00
2022-08-11T14:53:22.630Z,1.20
2022-08-11T14:56:08.309Z,1.10
2022-08-11T14:58:36.591Z,1.10
2022-08-11T15:01:24.162Z,1.10
2022-08-11T15:04:35.145Z,1.13
2022-08-11T15:06:39.351Z,1.20
2022-08-11T15:09:09.043Z,1.17
2022-08-11T15:11:57.590Z,1.10
2022-08-11T15:14:43.545Z,0.98
2022-08-11T15:17:12.961Z,1.10
2022-08-11T15:20:05.962Z,1.23
2022-08-11T15:22:53.396Z,1.30
2022-08-11T15:25:20.872Z,1.30
2022-08-11T15:28:10.616Z,1.15
2022-08-11T15:30:56.472Z,1.10
2022-08-11T15:33:45.333Z,1.20
2022-08-11T15:36:33.783Z,1.00
2022-08-11T15:39:08.950Z,1.20
2022-08-11T15:42:16.028Z,1.38
2022-08-11T15:45:05.336Z,1.50
2022-08-11T15:47:46.107Z,1.33
2022-08-11T15:50:20.248Z,1.38
2022-08-11T15:52:58.675Z,1.23
2022-08-11T15:55:26.612Z,1.30
2022-08-11T15:58:15.434Z,1.10
2022-08-11T16:01:08.982Z,1.35
2022-08-11T16:04:07.932Z,1.20
2022-08-11T16:06:47.472Z,1.27
2022-08-11T16:09:19.414Z,1.50
2022-08-11T16:11:47.489Z,1.40
2022-08-11T16:14:34.705Z,1.23
2022-08-11T16:17:03.056Z,1.58
2022-08-11T16:19:35.831Z,1.63
2022-08-11T16:22:10.322Z,1.60
2022-08-11T16:27:03.234Z,1.20
2022-08-11T16:27:34.136Z,1.25
2022-08-11T16:30:02.572Z,1.35
2022-08-11T16:32:31.308Z,1.30
2022-08-11T16:35:26.301Z,1.10
2022-08-11T16:38:13.774Z,1.10
2022-08-11T16:40:42.616Z,1.23
2022-08-11T16:43:32.194Z,1.10
2022-08-11T16:46:37.554Z,1.38
2022-08-11T16:49:12.221Z,1.48
2022-08-11T16:51:41.278Z,1.27
2022-08-11T16:54:07.968Z,1.10
2022-08-11T16:56:38.814Z,1.17
2022-08-11T16:59:18.565Z,1.30
2022-08-11T17:01:53.040Z,1.20
2022-08-11T17:04:49.897Z,1.40
2022-08-11T17:07:40.314Z,1.30
2022-08-11T17:10:56.475Z,1.27
2022-08-11T17:13:36.991Z,1.23
2022-08-11T17:16:12.767Z,1.30
2022-08-11T17:18:54.378Z,1.45
2022-08-11T17:21:21.022Z,1.77
2022-08-11T17:23:52.601Z,1.38
2022-08-11T17:26:26.555Z,1.23
2022-08-11T17:28:57.847Z,1.00
2022-08-11T17:31:47.348Z,1.20
2022-08-11T17:34:33.861Z,1.40
2022-08-11T17:37:04.363Z,1.30
2022-08-11T17:39:35.882Z,1.08
2022-08-11T17:42:21.217Z,1.17
2022-08-11T17:45:20.786Z,1.02
2022-08-11T17:48:08.061Z,1.20
2022-08-11T17:50:36.840Z,1.20
2022-08-11T17:53:22.431Z,1.05
2022-08-11T17:56:08.307Z,1.27
2022-08-11T17:58:57.344Z,1.10
2022-08-11T18:01:25.020Z,1.15
2022-08-11T18:03:58.032Z,1.20
2022-08-11T18:06:34.676Z,1.20
2022-08-11T18:09:23.690Z,1.20
2022-08-11T18:12:12.716Z,1.13
2022-08-11T18:15:04.959Z,1.40
2022-08-11T18:17:50.741Z,1.60
2022-08-11T18:20:37.758Z,1.50
2022-08-11T18:23:41.756Z,1.58
2022-08-11T18:26:37.921Z,1.25
2022-08-11T18:29:25.905Z,1.90
2022-08-11T18:32:21.917Z,1.50
2022-08-11T18:35:10.907Z,1.45
2022-08-11T18:38:02.209Z,1.30
2022-08-11T18:40:48.072Z,1.30
2022-08-11T18:43:35.453Z,1.20
2022-08-11T18:46:24.974Z,1.17
2022-08-11T18:49:16.511Z,1.23
2022-08-11T18:52:06.551Z,1.60
2022-08-11T18:54:55.567Z,1.30
2022-08-11T18:57:50.149Z,1.30
2022-08-11T19:00:41.872Z,1.27
2022-08-11T19:03:43.227Z,1.10
2022-08-11T19:06:39.974Z,1.50
2022-08-11T19:09:30.865Z,1.48
2022-08-11T19:12:20.508Z,1.67
2022-08-11T19:15:09.782Z,1.60
2022-08-11T19:17:59.254Z,1.50
2022-08-11T19:20:48.296Z,1.30
2022-08-11T19:23:39.856Z,1.50
2022-08-11T19:26:27.484Z,1.20
2022-08-11T19:30:05.132Z,1.58
2022-08-11T19:32:21.518Z,1.50
2022-08-11T19:35:07.725Z,1.55
2022-08-11T19:37:54.581Z,1.42
2022-08-11T19:40:40.942Z,1.35
2022-08-11T19:43:27.809Z,1.45
2022-08-11T19:46:18.895Z,1.63
2022-08-11T19:49:07.820Z,1.90
2022-08-11T19:51:54.847Z,1.65
2022-08-11T19:54:45.501Z,1.73
2022-08-11T19:57:37.123Z,1.50
2022-08-11T20:00:30.330Z,1.67
2022-08-11T20:03:17.079Z,1.70
2022-08-11T20:06:03.598Z,1.60
2022-08-11T20:08:49.948Z,1.50
2022-08-11T20:11:37.298Z,1.40
2022-08-11T20:14:25.760Z,1.80
2022-08-11T20:17:13.879Z,2.40
2022-08-11T20:22:51.462Z,91.82
2022-08-11T20:25:37.350Z,70.55
2022-08-11T20:28:25.272Z,58.25
2022-08-11T20:31:12.028Z,47.92
2022-08-11T20:33:58.984Z,47.63
2022-08-11T20:36:47.592Z,45.35
2022-08-11T20:39:43.163Z,43.20
2022-08-11T20:42:31.069Z,32.65
2022-08-11T20:45:23.836Z,22.13
2022-08-11T20:48:15.117Z,12.32
2022-08-11T20:51:07.350Z,10.82
2022-08-11T20:53:57.285Z,12.70
2022-08-11T20:56:44.290Z,11.02
2022-08-11T20:59:33.341Z,8.45
2022-08-11T21:05:13.160Z,8.02
2022-08-11T21:08:07.898Z,5.18
2022-08-11T21:10:56.376Z,2.50
2022-08-11T21:13:52.863Z,2.20
2022-08-11T21:16:47.501Z,2.22
2022-08-11T21:20:00.061Z,2.10
2022-08-11T21:22:59.047Z,2.15
2022-08-11T21:25:55.210Z,2.00
2022-08-11T21:31:31.405Z,1.80
2022-08-11T21:34:19.893Z,2.10
2022-08-11T21:37:07.660Z,1.92
2022-08-11T21:39:54.018Z,2.17
2022-08-11T21:42:40.537Z,2.25
2022-08-11T21:45:28.480Z,2.60
2022-08-11T21:48:18.932Z,1.95
2022-08-11T21:51:04.295Z,2.08
2022-08-11T21:53:50.191Z,2.00
2022-08-11T21:56:36.408Z,2.05
2022-08-11T21:59:21.866Z,1.90
2022-08-11T22:02:12.411Z,2.00
2022-08-11T22:04:58.091Z,2.00
2022-08-11T22:07:43.562Z,2.10
2022-08-11T22:10:41.415Z,2.00
2022-08-11T22:13:29.877Z,2.15
2022-08-11T22:16:15.262Z,2.38
2022-08-11T22:19:01.212Z,1.90
2022-08-11T22:22:01.727Z,2.08
2022-08-11T22:24:51.312Z,2.20
2022-08-11T22:27:36.608Z,2.20
2022-08-11T22:30:24.499Z,2.30
2022-08-11T22:33:09.937Z,1.90
2022-08-11T22:35:58.264Z,1.92
2022-08-11T22:38:44.997Z,2.30
2022-08-11T22:41:32.322Z,2.78
2022-08-11T22:44:17.579Z,2.30
2022-08-11T22:47:04.093Z,2.22
2022-08-11T22:49:58.238Z,2.30
2022-08-11T22:55:29.180Z,2.55
2022-08-11T22:58:14.642Z,2.15
2022-08-11T23:01:00.096Z,2.38
2022-08-11T23:03:45.178Z,2.40
2022-08-11T23:06:32.582Z,2.30
2022-08-11T23:09:19.483Z,2.45
2022-08-11T23:12:10.368Z,2.55
2022-08-11T23:14:57.630Z,2.00
2022-08-11T23:17:43.623Z,2.22
2022-08-11T23:20:34.357Z,2.30
2022-08-11T23:23:32.417Z,2.17
2022-08-11T23:26:17.837Z,3.10
2022-08-11T23:29:05.136Z,2.40
2022-08-11T23:31:53.515Z,2.30
2022-08-11T23:35:04.363Z,3.25
2022-08-11T23:37:48.380Z,2.55
2022-08-11T23:40:33.529Z,2.40
2022-08-11T23:43:19.363Z,2.30
2022-08-11T23:46:05.578Z,2.40
2022-08-11T23:48:52.215Z,2.40
2022-08-11T23:51:40.949Z,2.17
2022-08-11T23:54:31.553Z,2.67
2022-08-11T23:57:21.114Z,2.70
